Time;durP1;ratioP1;P1;durP2;ratioP2;P2;SDS_P1;SDS_P2;PMS_P1;PMS_P2;Temp;Humidity;BMP_temperature;BMP_pressure;BME280_temperature;BME280_humidity;BME280_pressure;Samples;Min_cycle;Max_cycle;Signal;HPM_P1;HPM_P2
2021/09/25 00:02:02;;;;;;;1.37;0.53;;;21.90;99.90;;;;;;21077304;28;20220;-72
2021/09/25 00:12:07;;;;;;;0.50;0.40;;;22.00;99.90;;;;;;21075756;28;20224;-72
2021/09/25 00:22:12;;;;;;;0.60;0.53;;;22.10;99.90;;;;;;21075066;28;20196;-72
2021/09/25 00:32:16;;;;;;;0.50;0.50;;;21.90;99.90;;;;;;21055660;28;20281;-71
2021/09/25 00:42:21;;;;;;;0.43;0.33;;;21.90;99.90;;;;;;21073270;28;20228;-71
2021/09/25 00:52:24;;;;;;;0.57;0.50;;;22.10;99.90;;;;;;21072101;28;20216;-73
2021/09/25 01:02:30;;;;;;;0.67;0.67;;;21.90;99.90;;;;;;21072406;28;20230;-74
2021/09/25 01:12:34;;;;;;;0.20;0.10;;;22.00;99.90;;;;;;21070861;28;20220;-73
2021/09/25 01:22:39;;;;;;;1.60;0.63;;;22.00;99.90;;;;;;21107111;28;20187;-73
2021/09/25 01:32:44;;;;;;;0.30;0.30;;;22.00;99.90;;;;;;21135085;28;20245;-73
2021/09/25 01:42:49;;;;;;;3.90;0.70;;;22.20;99.90;;;;;;21151838;28;20206;-72
2021/09/25 01:52:53;;;;;;;3.33;0.98;;;22.20;99.90;;;;;;21151607;28;21124;-72
2021/09/25 02:02:58;;;;;;;0.20;0.20;;;22.30;99.90;;;;;;21162189;22;20231;-68
2021/09/25 02:13:02;;;;;;;0.45;0.32;;;22.40;99.90;;;;;;21133426;28;20351;-69
2021/09/25 02:23:07;;;;;;;1.40;0.37;;;22.00;99.90;;;;;;21134251;28;20191;-67
2021/09/25 02:33:11;;;;;;;2.57;0.70;;;21.80;99.90;;;;;;21167040;28;20211;-68
2021/09/25 02:43:16;;;;;;;16.13;0.83;;;21.60;99.90;;;;;;21150938;28;20327;-68
2021/09/25 02:53:20;;;;;;;2.23;0.93;;;21.60;99.90;;;;;;21168215;28;20319;-68
2021/09/25 03:03:25;;;;;;;1.90;0.40;;;21.40;99.90;;;;;;21177919;28;20687;-67
2021/09/25 03:13:30;;;;;;;3.40;1.03;;;21.50;99.90;;;;;;21177697;28;20234;-67
2021/09/25 03:23:35;;;;;;;0.53;0.37;;;21.60;99.90;;;;;;21223356;27;20205;-66
2021/09/25 03:33:39;;;;;;;0.40;0.30;;;21.60;99.90;;;;;;21243248;27;20257;-68
2021/09/25 03:43:49;;;;;;;0.50;0.30;;;21.70;99.90;;;;;;21243353;27;20511;-68
2021/09/25 03:53:53;;;;;;;0.50;0.40;;;21.80;99.90;;;;;;21261473;27;20584;-67
2021/09/25 04:03:59;;;;;;;0.73;0.67;;;22.00;99.90;;;;;;21183206;22;20270;-73
2021/09/25 04:14:03;;;;;;;2.00;0.70;;;22.00;99.90;;;;;;21076465;28;20216;-74
2021/09/25 04:24:09;;;;;;;1.30;1.20;;;22.40;99.90;;;;;;21075890;28;20224;-71
2021/09/25 04:34:15;;;;;;;1.70;0.73;;;22.20;99.90;;;;;;21074620;28;20306;-70
2021/09/25 04:44:20;;;;;;;1.07;0.60;;;22.00;99.90;;;;;;21074571;28;20227;-71
2021/09/25 04:54:24;;;;;;;1.07;0.97;;;21.90;99.90;;;;;;21073206;28;20220;-70
2021/09/25 05:04:29;;;;;;;0.57;0.57;;;22.10;99.90;;;;;;21115315;28;20771;-72
2021/09/25 05:14:33;;;;;;;0.47;0.47;;;22.20;99.90;;;;;;21138003;28;20227;-72
2021/09/25 05:24:39;;;;;;;2.37;0.57;;;22.00;99.90;;;;;;21100230;28;20241;-72
2021/09/25 05:34:43;;;;;;;0.43;0.27;;;22.00;99.90;;;;;;21051433;28;20323;-72
2021/09/25 05:44:49;;;;;;;3.80;0.67;;;21.90;99.90;;;;;;21069337;28;20196;-71
2021/09/25 05:54:53;;;;;;;0.20;0.10;;;21.90;99.90;;;;;;21068177;28;20220;-72
2021/09/25 06:04:58;;;;;;;5.03;0.93;;;22.00;99.90;;;;;;21115576;28;20679;-70
2021/09/25 06:15:01;;;;;;;3.07;0.63;;;21.80;99.90;;;;;;21151350;28;20672;-71
2021/09/25 06:25:08;;;;;;;0.30;0.30;;;21.90;99.90;;;;;;21015286;28;20199;-73
2021/09/25 06:35:15;;;;;;;0.43;0.27;;;22.00;99.90;;;;;;20982617;28;20221;-72
2021/09/25 06:45:21;;;;;;;1.03;0.63;;;21.90;99.90;;;;;;20980809;28;20733;-71
2021/09/25 06:55:25;;;;;;;2.57;0.70;;;21.80;99.90;;;;;;20980650;28;20742;-76
2021/09/25 07:05:30;;;;;;;0.33;0.33;;;21.90;99.90;;;;;;21081975;28;20582;-73
2021/09/25 07:15:34;;;;;;;0.40;0.20;;;22.20;99.90;;;;;;21149084;28;20363;-75
2021/09/25 07:25:40;;;;;;;0.50;0.50;;;22.40;99.90;;;;;;21147151;28;20191;-74
2021/09/25 07:35:46;;;;;;;1.10;0.52;;;22.50;99.90;;;;;;21149016;28;20211;-72
2021/09/25 07:45:51;;;;;;;1.17;0.85;;;22.80;99.90;;;;;;21161943;28;20187;-73
2021/09/25 07:55:55;;;;;;;0.85;0.85;;;23.00;99.90;;;;;;21161770;28;20234;-73
2021/09/25 08:06:01;;;;;;;1.10;0.30;;;23.60;99.90;;;;;;21154922;28;20599;-76
2021/09/25 08:16:05;;;;;;;1.13;0.73;;;24.50;99.90;;;;;;21054070;28;20216;-72
2021/09/25 08:26:10;;;;;;;0.73;0.73;;;25.20;99.90;;;;;;21140937;28;20221;-74
2021/09/25 08:36:13;;;;;;;1.42;0.73;;;25.40;99.90;;;;;;21122060;28;20224;-78
2021/09/25 08:57:03;;;;;;;1.17;1.08;;;25.30;99.90;;;;;;20964016;23;20327;-70
2021/09/25 09:07:18;;;;;;;7.97;1.20;;;25.40;99.90;;;;;;20988403;28;20578;-70
2021/09/25 09:17:32;;;;;;;0.60;0.60;;;25.40;99.90;;;;;;20987338;28;20233;-69
2021/09/25 09:27:44;;;;;;;2.75;1.70;;;25.70;99.90;;;;;;20985344;28;20220;-68
2021/09/25 09:37:58;;;;;;;0.73;0.73;;;25.40;99.90;;;;;;20984757;28;20244;-70
2021/09/25 09:48:02;;;;;;;2.58;1.20;;;25.70;99.90;;;;;;20968863;28;20247;-70
2021/09/25 09:58:08;;;;;;;1.17;1.08;;;25.80;99.90;;;;;;21031043;28;20216;-69
2021/09/25 10:08:12;;;;;;;4.72;1.90;;;25.60;99.90;;;;;;21010957;28;20712;-72
2021/09/25 10:18:19;;;;;;;0.73;0.57;;;26.10;99.90;;;;;;21018097;28;20216;-69
2021/09/25 10:28:27;;;;;;;3.58;1.15;;;26.60;99.90;;;;;;21058706;28;20222;-68
2021/09/25 10:38:36;;;;;;;0.85;0.85;;;26.90;99.90;;;;;;21064827;28;20562;-71
2021/09/25 10:49:00;;;;;;;3.85;0.60;;;27.40;99.90;;;;;;21046011;28;20251;-69
2021/09/25 10:59:06;;;;;;;4.90;0.93;;;27.80;99.90;;;;;;21064461;28;20314;-70
2021/09/25 11:09:17;;;;;;;3.05;0.73;;;28.00;99.90;;;;;;21036456;28;20631;-71
2021/09/25 11:19:40;;;;;;;0.90;0.85;;;28.20;99.90;;;;;;21071007;28;21008;-72
2021/09/25 11:30:10;;;;;;;2.22;1.55;;;28.70;99.90;;;;;;21033759;28;20254;-73
2021/09/25 11:40:16;;;;;;;2.83;2.10;;;29.80;99.90;;;;;;21048647;28;20223;-71
2021/09/25 11:50:23;;;;;;;1.45;1.17;;;29.50;99.90;;;;;;21050894;28;20692;-71
2021/09/25 12:00:35;;;;;;;1.98;1.30;;;29.70;99.90;;;;;;21076447;28;20223;-68
2021/09/25 12:10:41;;;;;;;0.73;0.50;;;29.90;99.90;;;;;;21054205;28;20470;-73
2021/09/25 12:20:48;;;;;;;2.10;1.40;;;30.50;99.90;;;;;;21048701;28;20537;-69
2021/09/25 12:30:52;;;;;;;8.25;1.25;;;31.10;99.90;;;;;;21069285;28;20257;-70
2021/09/25 12:41:01;;;;;;;1.75;1.55;;;30.30;99.90;;;;;;21020950;28;20291;-70
2021/09/25 12:51:12;;;;;;;1.17;0.75;;;31.90;99.90;;;;;;21072519;28;20232;-69
2021/09/25 13:01:27;;;;;;;1.77;0.90;;;32.00;99.90;;;;;;21054570;28;20213;-69
2021/09/25 13:11:32;;;;;;;1.10;0.85;;;30.90;99.90;;;;;;21072647;28;20667;-70
2021/09/25 13:21:38;;;;;;;0.90;0.65;;;31.10;99.90;;;;;;21044033;28;20334;-69
2021/09/25 13:31:41;;;;;;;15.80;0.57;;;31.70;99.90;;;;;;20987365;28;20225;-71
2021/09/25 13:41:47;;;;;;;1.15;0.75;;;31.10;99.90;;;;;;20987610;28;20208;-67
2021/09/25 13:51:51;;;;;;;2.60;1.05;;;29.90;99.90;;;;;;20987128;28;20307;-69
2021/09/25 14:01:55;;;;;;;1.48;1.05;;;29.60;99.90;;;;;;20985959;28;20201;-70
2021/09/25 14:12:01;;;;;;;0.70;0.55;;;30.30;99.90;;;;;;20984913;28;20224;-70
2021/09/25 14:22:06;;;;;;;0.60;0.52;;;30.90;99.90;;;;;;20982648;28;20280;-69
2021/09/25 14:32:10;;;;;;;5.07;1.90;;;31.20;99.90;;;;;;20983111;28;20316;-68
2021/09/25 14:42:15;;;;;;;5.43;2.10;;;29.90;99.90;;;;;;20983148;28;20197;-69
2021/09/25 14:52:18;;;;;;;1.23;1.13;;;28.90;99.90;;;;;;20982103;28;20229;-69
2021/09/25 15:02:25;;;;;;;2.63;2.42;;;29.20;99.90;;;;;;20982275;28;20211;-70
2021/09/25 15:12:29;;;;;;;4.00;1.70;;;31.00;99.90;;;;;;20980545;28;20221;-69
2021/09/25 15:22:34;;;;;;;6.88;2.35;;;30.70;99.90;;;;;;20947557;28;20566;-69
2021/09/25 15:32:38;;;;;;;2.65;0.70;;;30.60;99.90;;;;;;20909616;28;20260;-70
2021/09/25 15:42:43;;;;;;;3.58;2.47;;;30.30;99.90;;;;;;20897371;28;20284;-69
2021/09/25 15:52:47;;;;;;;0.88;0.88;;;30.00;99.90;;;;;;20940566;28;20665;-68
2021/09/25 16:02:52;;;;;;;1.42;0.93;;;28.80;99.90;;;;;;20991368;28;20185;-68
2021/09/25 16:12:56;;;;;;;5.57;0.82;;;27.30;99.90;;;;;;20993110;28;20220;-69
2021/09/25 16:23:01;;;;;;;5.15;1.90;;;26.90;99.90;;;;;;20992109;28;20654;-70
2021/09/25 16:33:05;;;;;;;2.70;1.23;;;26.60;99.90;;;;;;20988419;28;20266;-72
2021/09/25 16:43:11;;;;;;;1.30;1.20;;;26.30;99.90;;;;;;20989462;28;20578;-71
2021/09/25 16:53:14;;;;;;;1.42;0.82;;;26.50;99.90;;;;;;20987669;28;20224;-70
2021/09/25 17:03:19;;;;;;;1.63;1.00;;;26.20;99.90;;;;;;20988371;28;20189;-70
2021/09/25 17:13:23;;;;;;;2.13;1.92;;;26.10;99.90;;;;;;20986059;28;20235;-69
2021/09/25 17:23:28;;;;;;;1.35;1.25;;;26.40;99.90;;;;;;20985770;28;20565;-70
2021/09/25 17:33:32;;;;;;;1.38;0.82;;;25.90;99.90;;;;;;20985086;28;20678;-70
2021/09/25 17:43:37;;;;;;;0.75;0.50;;;25.90;99.90;;;;;;20985394;28;20280;-69
2021/09/25 17:53:41;;;;;;;4.97;1.92;;;25.60;99.90;;;;;;21035972;28;20252;-68
2021/09/25 18:03:48;;;;;;;4.40;2.17;;;25.50;99.90;;;;;;21066224;28;20721;-72
2021/09/25 18:13:52;;;;;;;0.80;0.63;;;25.50;99.90;;;;;;21041307;28;20231;-69
2021/09/25 18:23:58;;;;;;;1.73;1.27;;;25.40;99.90;;;;;;21014697;28;20197;-69
2021/09/25 18:34:01;;;;;;;0.93;0.93;;;25.20;99.90;;;;;;20979849;28;20217;-69
2021/09/25 18:44:06;;;;;;;2.17;2.03;;;25.50;99.90;;;;;;20984155;28;20184;-67
2021/09/25 18:54:10;;;;;;;0.50;0.50;;;25.10;99.90;;;;;;20983299;28;20229;-68
2021/09/25 19:04:15;;;;;;;0.93;0.93;;;24.50;99.90;;;;;;20996502;28;20250;-68
2021/09/25 19:14:20;;;;;;;1.45;1.10;;;24.10;99.90;;;;;;20973711;28;20303;-70
2021/09/25 19:24:26;;;;;;;1.25;1.15;;;23.80;99.90;;;;;;20973111;28;20575;-70
2021/09/25 19:34:30;;;;;;;7.57;2.05;;;23.70;99.90;;;;;;20986709;28;20282;-68
2021/09/25 19:44:37;;;;;;;1.95;1.50;;;23.50;99.90;;;;;;20991957;28;20275;-68
2021/09/25 19:54:41;;;;;;;2.15;1.20;;;23.50;99.90;;;;;;21050804;28;20276;-68
2021/09/25 20:04:46;;;;;;;1.80;1.33;;;23.50;99.90;;;;;;21075176;28;20287;-69
2021/09/25 20:14:50;;;;;;;1.58;1.15;;;23.40;99.90;;;;;;21004975;28;20363;-69
2021/09/25 20:24:54;;;;;;;1.13;0.93;;;23.50;99.90;;;;;;20989646;28;20200;-68
2021/09/25 20:35:00;;;;;;;1.85;1.63;;;23.70;99.90;;;;;;20989424;28;20554;-68
2021/09/25 20:45:05;;;;;;;0.75;0.60;;;23.50;99.90;;;;;;20967845;28;20189;-68
2021/09/25 20:55:11;;;;;;;1.35;1.20;;;23.50;99.90;;;;;;20986626;28;20563;-70
2021/09/25 21:05:16;;;;;;;1.83;0.82;;;23.70;99.90;;;;;;20985919;28;20239;-69
2021/09/25 21:15:23;;;;;;;1.05;0.82;;;23.40;99.90;;;;;;20985290;28;20319;-69
2021/09/25 21:25:43;;;;;;;1.75;1.13;;;23.40;99.90;;;;;;20986864;28;20657;-70
2021/09/25 21:35:51;;;;;;;1.08;0.77;;;23.10;99.90;;;;;;20982766;28;20224;-71
2021/09/25 21:45:58;;;;;;;1.77;1.67;;;22.90;99.90;;;;;;20984675;28;20609;-69
2021/09/25 21:56:36;;;;;;;1.35;0.98;;;22.90;99.90;;;;;;20981335;28;20233;-69
2021/09/25 22:06:51;;;;;;;0.25;0.25;;;22.60;99.90;;;;;;20982541;28;20189;-70
2021/09/25 22:16:58;;;;;;;0.63;0.63;;;22.50;99.90;;;;;;20984916;28;20274;-67
2021/09/25 22:27:05;;;;;;;1.00;1.00;;;22.60;99.90;;;;;;20985389;28;20204;-68
2021/09/25 22:37:15;;;;;;;0.88;0.60;;;22.80;99.90;;;;;;21001036;28;20590;-69
2021/09/25 22:47:23;;;;;;;0.40;0.40;;;22.80;99.90;;;;;;20980108;28;20246;-69
2021/09/25 22:57:31;;;;;;;4.18;1.52;;;22.80;99.90;;;;;;20981297;28;20228;-68
2021/09/25 23:07:36;;;;;;;0.80;0.70;;;22.90;99.90;;;;;;20986376;28;20292;-68
2021/09/25 23:17:41;;;;;;;0.45;0.45;;;22.80;99.90;;;;;;20997668;28;20315;-69
2021/09/25 23:27:46;;;;;;;0.40;0.40;;;22.50;99.90;;;;;;20997156;28;20200;-68
2021/09/25 23:37:49;;;;;;;0.93;0.73;;;22.50;99.90;;;;;;20997080;28;20225;-68
2021/09/25 23:47:54;;;;;;;2.47;1.55;;;22.40;99.90;;;;;;20995439;28;20260;-70
2021/09/25 23:57:58;;;;;;;3.97;1.65;;;22.50;99.90;;;;;;20995367;28;20688;-70
